Time;durP1;ratioP1;P1;durP2;ratioP2;P2;SDS_P1;SDS_P2;PMS_P1;PMS_P2;Temp;Humidity;BMP_temperature;BMP_pressure;BME280_temperature;BME280_humidity;BME280_pressure;Samples;Min_cycle;Max_cycle;Signal;HPM_P1;HPM_P2
2021/03/12 00:00:01;;;;;;;7.80;1.50;;;7.30;90.70;;;;;;4879682;29;20049;-71
2021/03/12 00:02:30;;;;;;;9.50;1.97;;;7.30;90.70;;;;;;4894123;29;20135;-72
2021/03/12 00:04:57;;;;;;;6.27;1.57;;;7.30;90.60;;;;;;4893371;29;20489;-71
2021/03/12 00:07:24;;;;;;;7.93;1.95;;;7.30;90.50;;;;;;4895407;29;20093;-71
2021/03/12 00:09:51;;;;;;;8.77;1.83;;;7.30;90.50;;;;;;4896852;29;20557;-71
2021/03/12 00:12:17;;;;;;;11.43;1.60;;;7.30;90.40;;;;;;4896774;29;20062;-71
2021/03/12 00:14:44;;;;;;;7.10;1.20;;;7.30;90.30;;;;;;4894661;29;20501;-71
2021/03/12 00:17:10;;;;;;;8.27;1.17;;;7.40;90.30;;;;;;4894935;29;20170;-71
2021/03/12 00:19:37;;;;;;;11.90;0.90;;;7.40;90.20;;;;;;4894667;29;20088;-71
2021/03/12 00:22:04;;;;;;;9.80;1.50;;;7.40;90.20;;;;;;4895709;29;20046;-72
2021/03/12 00:24:30;;;;;;;6.43;1.40;;;7.40;90.10;;;;;;4890732;29;20544;-75
2021/03/12 00:26:59;;;;;;;5.90;0.90;;;7.40;90.00;;;;;;4880820;29;20039;-76
2021/03/12 00:29:27;;;;;;;7.60;0.90;;;7.40;90.00;;;;;;4897592;29;20036;-76
2021/03/12 00:31:54;;;;;;;12.27;1.40;;;7.40;90.00;;;;;;4896182;29;20045;-76
2021/03/12 00:34:21;;;;;;;4.70;0.93;;;7.40;89.90;;;;;;4896037;29;20401;-74
2021/03/12 00:36:48;;;;;;;5.15;0.90;;;7.40;89.90;;;;;;4896558;29;20048;-72
2021/03/12 00:39:15;;;;;;;6.65;1.00;;;7.40;89.70;;;;;;4880267;29;20112;-71
2021/03/12 00:42:02;;;;;;;4.10;0.82;;;7.50;89.60;;;;;;4897859;29;20072;-71
2021/03/12 00:44:32;;;;;;;3.10;0.90;;;7.50;89.60;;;;;;4896403;29;20135;-71
2021/03/12 00:47:00;;;;;;;8.10;1.55;;;7.40;89.60;;;;;;4899809;29;20054;-71
2021/03/12 00:49:27;;;;;;;6.28;1.05;;;7.50;89.60;;;;;;4896374;29;20049;-71
2021/03/12 00:51:58;;;;;;;7.57;0.95;;;7.50;89.20;;;;;;4902401;29;20045;-71
2021/03/12 00:54:27;;;;;;;5.47;1.25;;;7.50;89.30;;;;;;4886216;29;20044;-71
2021/03/12 00:57:03;;;;;;;6.13;1.60;;;7.50;89.20;;;;;;4899296;29;22183;-71
2021/03/12 00:59:30;;;;;;;5.60;1.25;;;7.50;88.90;;;;;;4881635;29;20112;-72
2021/03/12 01:01:58;;;;;;;4.30;1.27;;;7.50;89.00;;;;;;4877496;29;20048;-70
2021/03/12 01:04:24;;;;;;;4.03;1.23;;;7.50;88.80;;;;;;4892560;29;20064;-71
2021/03/12 01:07:00;;;;;;;5.95;1.00;;;7.50;88.80;;;;;;4901005;29;20516;-71
2021/03/12 01:09:27;;;;;;;5.15;1.27;;;7.50;88.90;;;;;;4899140;29;20135;-71
2021/03/12 01:11:53;;;;;;;4.05;1.10;;;7.50;89.30;;;;;;4885294;29;20041;-71
2021/03/12 01:14:23;;;;;;;5.93;0.90;;;7.50;88.70;;;;;;4885604;29;20690;-71
2021/03/12 01:16:51;;;;;;;4.23;1.20;;;7.50;88.60;;;;;;4896081;29;20158;-71
2021/03/12 01:19:19;;;;;;;4.27;0.77;;;7.50;88.50;;;;;;4880393;29;20105;-71
2021/03/12 01:21:50;;;;;;;5.90;1.03;;;7.50;88.50;;;;;;4898089;29;20055;-71
2021/03/12 01:24:17;;;;;;;4.17;0.80;;;7.50;88.40;;;;;;4874099;29;20307;-71
2021/03/12 01:26:55;;;;;;;4.50;1.17;;;7.50;88.50;;;;;;4888256;29;20040;-74
2021/03/12 01:29:22;;;;;;;6.90;1.43;;;7.40;88.60;;;;;;4899431;29;20060;-75
2021/03/12 01:32:09;;;;;;;5.73;1.20;;;7.50;88.80;;;;;;4901141;29;20052;-74
2021/03/12 01:34:43;;;;;;;8.00;1.20;;;7.40;88.70;;;;;;4901379;29;20045;-74
2021/03/12 01:37:10;;;;;;;4.80;1.20;;;7.40;88.70;;;;;;4902449;29;20053;-74
2021/03/12 01:39:48;;;;;;;4.27;1.30;;;7.40;88.60;;;;;;4901933;29;20052;-74
2021/03/12 01:42:15;;;;;;;5.23;0.90;;;7.40;88.40;;;;;;4897708;29;20049;-75
2021/03/12 01:44:42;;;;;;;5.67;0.87;;;7.40;88.40;;;;;;4870510;29;20080;-74
2021/03/12 01:47:15;;;;;;;;;;;7.40;88.50;;;;;;4889376;29;20040;-74
2021/03/12 01:49:42;;;;;;;8.43;1.00;;;7.40;88.80;;;;;;4901941;29;19923;-74
2021/03/12 01:52:10;;;;;;;5.47;1.20;;;7.40;88.50;;;;;;4897944;29;20061;-74
2021/03/12 01:54:37;;;;;;;7.30;1.80;;;7.40;88.60;;;;;;4898145;29;20048;-71
2021/03/12 01:57:10;;;;;;;6.00;1.03;;;7.40;89.20;;;;;;4897838;29;20037;-71
2021/03/12 01:59:46;;;;;;;4.67;1.20;;;7.40;88.70;;;;;;4878670;29;20528;-71
2021/03/12 02:02:25;;;;;;;7.80;1.47;;;7.40;88.50;;;;;;4889097;29;20052;-71
2021/03/12 02:05:03;;;;;;;4.77;1.40;;;7.40;88.20;;;;;;4883266;29;20072;-71
2021/03/12 02:07:32;;;;;;;8.27;1.93;;;7.40;88.20;;;;;;4889499;29;20896;-71
2021/03/12 02:10:13;;;;;;;5.20;1.10;;;7.40;88.40;;;;;;4897010;29;20041;-71
2021/03/12 02:13:08;;;;;;;9.40;1.35;;;7.40;88.40;;;;;;4894531;29;20127;-71
2021/03/12 02:15:49;;;;;;;6.97;1.73;;;7.40;88.40;;;;;;4897243;29;20036;-71
2021/03/12 02:18:23;;;;;;;5.77;1.00;;;7.40;88.40;;;;;;4913040;29;20068;-71
2021/03/12 02:20:58;;;;;;;7.50;1.67;;;7.40;88.40;;;;;;4896457;29;20045;-71
2021/03/12 02:23:39;;;;;;;6.90;1.43;;;7.40;88.30;;;;;;4897707;29;20048;-71
2021/03/12 02:26:34;;;;;;;9.27;1.20;;;7.40;88.20;;;;;;4896682;29;20055;-71
2021/03/12 02:29:05;;;;;;;8.77;2.10;;;7.40;88.40;;;;;;4896363;29;20104;-71
2021/03/12 02:31:38;;;;;;;5.53;1.10;;;7.40;88.30;;;;;;4896775;29;20044;-71
2021/03/12 02:34:08;;;;;;;5.75;1.10;;;7.30;88.20;;;;;;4892088;29;20040;-71
2021/03/12 02:36:37;;;;;;;6.75;1.65;;;7.30;88.30;;;;;;4877058;29;20494;-71
2021/03/12 02:39:10;;;;;;;6.97;1.42;;;7.30;88.10;;;;;;4895559;29;20108;-74
2021/03/12 02:41:39;;;;;;;11.83;1.53;;;7.30;88.10;;;;;;4891724;29;20048;-74
2021/03/12 02:44:10;;;;;;;10.87;1.97;;;7.30;88.20;;;;;;4892522;29;20044;-74
2021/03/12 02:46:54;;;;;;;8.90;1.53;;;7.30;88.20;;;;;;4898293;29;20044;-74
2021/03/12 02:49:21;;;;;;;8.70;1.63;;;7.30;88.00;;;;;;4899565;29;20120;-74
2021/03/12 02:51:48;;;;;;;5.67;1.37;;;7.20;88.20;;;;;;4898491;29;20052;-74
2021/03/12 02:54:16;;;;;;;6.83;1.17;;;7.20;88.10;;;;;;4881871;29;20045;-74
2021/03/12 02:56:46;;;;;;;7.77;1.30;;;7.20;88.20;;;;;;4899683;29;20044;-74
2021/03/12 02:59:14;;;;;;;8.30;1.43;;;7.20;88.00;;;;;;4882461;29;20135;-74
2021/03/12 03:02:00;;;;;;;9.37;2.10;;;7.20;88.00;;;;;;4898054;29;20087;-74
2021/03/12 03:04:49;;;;;;;10.50;1.30;;;7.20;87.90;;;;;;4896866;29;20068;-74
2021/03/12 03:07:27;;;;;;;7.83;2.13;;;7.10;87.90;;;;;;4899498;29;20037;-74
2021/03/12 03:09:56;;;;;;;7.00;1.40;;;7.20;87.80;;;;;;4898199;29;20794;-71
2021/03/12 03:12:26;;;;;;;10.53;1.30;;;7.10;87.60;;;;;;4897591;29;20549;-74
2021/03/12 03:14:59;;;;;;;5.97;0.90;;;7.10;87.60;;;;;;4897235;29;20047;-74
2021/03/12 03:17:29;;;;;;;10.97;1.40;;;7.10;87.70;;;;;;4888112;29;20057;-71
2021/03/12 03:19:58;;;;;;;7.40;1.30;;;7.10;87.70;;;;;;4896484;29;20048;-71
2021/03/12 03:22:26;;;;;;;7.10;1.20;;;7.10;87.80;;;;;;4892380;29;20139;-74
2021/03/12 03:24:54;;;;;;;5.67;1.20;;;7.10;87.50;;;;;;4893184;29;20052;-74
2021/03/12 03:27:21;;;;;;;14.30;1.87;;;7.10;87.50;;;;;;4882620;29;20501;-74
2021/03/12 03:29:48;;;;;;;7.27;1.37;;;7.10;87.50;;;;;;4896121;29;20044;-71
2021/03/12 03:32:17;;;;;;;6.20;0.90;;;7.10;87.60;;;;;;4893962;29;20043;-71
2021/03/12 03:34:44;;;;;;;7.90;0.70;;;7.00;87.60;;;;;;4896256;29;20041;-71
2021/03/12 03:37:12;;;;;;;6.10;0.80;;;7.00;87.60;;;;;;4897036;29;20045;-74
2021/03/12 03:39:42;;;;;;;8.20;1.20;;;7.00;87.70;;;;;;4889024;29;20052;-74
2021/03/12 03:42:10;;;;;;;5.90;0.70;;;7.00;87.70;;;;;;4897097;29;20386;-74
2021/03/12 03:44:39;;;;;;;6.87;1.20;;;7.00;87.70;;;;;;4897149;29;20052;-74
2021/03/12 03:47:08;;;;;;;4.60;1.10;;;7.00;87.70;;;;;;4896832;29;20065;-74
2021/03/12 03:49:36;;;;;;;5.17;1.07;;;7.00;87.80;;;;;;4896728;29;20048;-74
2021/03/12 03:52:05;;;;;;;4.87;1.53;;;7.00;87.70;;;;;;4877700;29;20526;-71
2021/03/12 03:54:38;;;;;;;6.83;0.97;;;7.00;87.90;;;;;;4895607;29;20051;-74
2021/03/12 03:57:11;;;;;;;4.40;0.80;;;7.00;88.00;;;;;;4896722;29;20055;-74
2021/03/12 03:59:40;;;;;;;5.53;1.00;;;6.90;88.10;;;;;;4874516;29;20063;-71
2021/03/12 04:02:10;;;;;;;5.50;0.87;;;6.90;88.20;;;;;;4889795;29;20053;-71
2021/03/12 04:04:37;;;;;;;10.07;1.37;;;7.00;88.20;;;;;;4892657;29;20084;-70
2021/03/12 04:07:09;;;;;;;8.03;1.00;;;6.90;88.10;;;;;;4881253;29;20045;-74
2021/03/12 04:09:38;;;;;;;7.70;1.10;;;6.90;88.10;;;;;;4896557;29;20048;-74
2021/03/12 04:12:08;;;;;;;5.90;0.80;;;6.90;88.10;;;;;;4896614;29;20037;-74
2021/03/12 04:14:44;;;;;;;4.23;0.70;;;6.90;88.10;;;;;;4897403;29;20489;-74
2021/03/12 04:17:13;;;;;;;5.17;0.77;;;6.90;88.10;;;;;;4881025;29;20132;-74
2021/03/12 04:19:43;;;;;;;2.93;0.70;;;6.80;88.20;;;;;;4895947;29;20131;-74
2021/03/12 04:22:11;;;;;;;3.50;0.70;;;6.80;88.40;;;;;;4895771;29;20131;-70
2021/03/12 04:24:40;;;;;;;7.30;0.73;;;6.80;88.40;;;;;;4891861;29;20104;-71
2021/03/12 04:27:11;;;;;;;3.83;0.53;;;6.70;88.30;;;;;;4855986;29;20089;-71
2021/03/12 04:29:38;;;;;;;4.33;0.60;;;6.70;88.40;;;;;;4890899;29;20068;-71
2021/03/12 04:32:06;;;;;;;4.27;0.67;;;6.60;88.50;;;;;;4896451;29;20040;-74
2021/03/12 04:34:33;;;;;;;4.50;0.70;;;6.60;88.50;;;;;;4896431;29;20139;-74
2021/03/12 04:37:00;;;;;;;7.43;0.80;;;6.60;88.50;;;;;;4886201;29;20067;-71
2021/03/12 04:39:31;;;;;;;3.07;1.27;;;6.50;88.50;;;;;;4888875;29;20136;-71
2021/03/12 04:41:58;;;;;;;6.93;0.60;;;6.40;89.20;;;;;;4887261;29;20497;-71
2021/03/12 04:44:28;;;;;;;5.00;0.57;;;6.40;88.70;;;;;;4891306;29;20440;-73
2021/03/12 04:46:55;;;;;;;3.20;0.93;;;6.30;88.80;;;;;;4896101;29;20041;-74
2021/03/12 04:49:22;;;;;;;7.80;1.10;;;6.20;88.80;;;;;;4880690;29;20052;-74
2021/03/12 04:51:50;;;;;;;9.37;0.80;;;6.20;88.90;;;;;;4895904;29;20057;-74
2021/03/12 04:54:18;;;;;;;3.90;0.70;;;6.10;88.90;;;;;;4878963;29;20060;-71
2021/03/12 04:56:48;;;;;;;5.73;0.60;;;6.10;89.00;;;;;;4889764;29;20100;-71
2021/03/12 04:59:16;;;;;;;6.30;0.73;;;6.00;89.20;;;;;;4894204;29;20513;-71
2021/03/12 05:01:47;;;;;;;2.60;0.63;;;6.00;89.40;;;;;;4887278;29;20159;-70
2021/03/12 05:04:16;;;;;;;3.97;0.90;;;6.00;89.50;;;;;;4884645;29;20140;-71
2021/03/12 05:06:44;;;;;;;5.90;0.80;;;6.00;89.40;;;;;;4878604;29;20051;-71
2021/03/12 05:09:30;;;;;;;3.90;0.67;;;5.90;89.90;;;;;;4896049;29;20108;-70
2021/03/12 05:11:58;;;;;;;7.07;1.00;;;5.90;89.30;;;;;;4894036;29;20064;-71
2021/03/12 05:14:28;;;;;;;6.33;0.80;;;5.90;89.40;;;;;;4889709;29;20055;-70
2021/03/12 05:16:55;;;;;;;8.47;0.93;;;5.90;89.70;;;;;;4877633;29;20053;-74
2021/03/12 05:19:23;;;;;;;5.17;0.97;;;5.80;89.80;;;;;;4865702;29;20504;-74
2021/03/12 05:21:55;;;;;;;2.60;0.47;;;5.80;89.90;;;;;;4881468;29;20040;-74
2021/03/12 05:24:23;;;;;;;5.50;1.00;;;5.80;89.90;;;;;;4895940;29;20104;-74
2021/03/12 05:26:51;;;;;;;4.67;0.57;;;5.70;90.00;;;;;;4897150;29;20039;-74
2021/03/12 05:29:23;;;;;;;6.73;1.07;;;5.70;89.90;;;;;;4899591;29;20071;-74
2021/03/12 05:31:56;;;;;;;3.87;0.67;;;5.70;89.90;;;;;;4899445;29;20087;-74
2021/03/12 05:34:23;;;;;;;10.17;1.07;;;5.70;90.00;;;;;;4898935;29;20052;-74
2021/03/12 05:36:51;;;;;;;5.07;0.97;;;5.70;90.00;;;;;;4898821;29;20165;-74
2021/03/12 05:39:20;;;;;;;5.43;0.70;;;5.70;90.00;;;;;;4883413;29;20124;-71
2021/03/12 05:41:48;;;;;;;7.73;1.20;;;5.70;90.10;;;;;;4897154;29;20047;-71
2021/03/12 05:44:18;;;;;;;4.73;1.10;;;5.60;90.10;;;;;;4888346;29;20136;-71
2021/03/12 05:46:46;;;;;;;2.73;0.70;;;5.60;90.10;;;;;;4890100;29;20501;-70
2021/03/12 05:49:14;;;;;;;3.37;1.03;;;5.60;90.10;;;;;;4871816;29;20033;-70
2021/03/12 05:51:43;;;;;;;5.30;1.20;;;5.60;90.20;;;;;;4889834;29;20477;-71
2021/03/12 05:54:10;;;;;;;4.10;0.80;;;5.60;90.20;;;;;;4889084;29;20128;-71
2021/03/12 05:56:40;;;;;;;4.30;0.90;;;5.60;90.30;;;;;;4875904;29;20421;-71
2021/03/12 05:59:06;;;;;;;5.97;1.40;;;5.50;90.30;;;;;;4886739;29;20053;-71
2021/03/12 06:01:40;;;;;;;6.40;0.90;;;5.50;90.20;;;;;;4870036;29;20056;-71
2021/03/12 06:04:10;;;;;;;7.30;1.20;;;5.60;90.20;;;;;;4893659;29;20045;-71
2021/03/12 06:06:40;;;;;;;5.37;0.83;;;5.60;90.20;;;;;;4890500;29;20048;-71
2021/03/12 06:09:07;;;;;;;8.60;1.33;;;5.60;90.20;;;;;;4876718;29;20072;-71
2021/03/12 06:11:35;;;;;;;4.07;0.97;;;5.50;90.10;;;;;;4882297;29;20458;-71
2021/03/12 06:14:04;;;;;;;9.00;1.60;;;5.50;90.10;;;;;;4879154;29;20532;-75
2021/03/12 06:16:53;;;;;;;8.10;0.70;;;5.60;90.20;;;;;;4886972;29;20040;-75
2021/03/12 06:19:34;;;;;;;6.67;0.77;;;5.50;90.20;;;;;;4894110;29;20056;-71
2021/03/12 06:22:10;;;;;;;5.07;0.80;;;5.50;90.30;;;;;;4894289;29;20096;-71
2021/03/12 06:24:44;;;;;;;5.47;0.97;;;5.60;90.30;;;;;;4868128;29;20104;-71
2021/03/12 06:27:34;;;;;;;5.03;0.90;;;5.60;90.20;;;;;;4889090;29;20136;-74
2021/03/12 06:30:33;;;;;;;6.63;1.70;;;5.60;90.20;;;;;;4881421;29;20405;-75
2021/03/12 06:33:32;;;;;;;7.03;1.20;;;5.60;90.10;;;;;;4883060;29;20144;-71
2021/03/12 06:36:28;;;;;;;7.50;1.70;;;5.60;90.20;;;;;;4879895;29;20058;-71
2021/03/12 06:39:16;;;;;;;9.53;1.87;;;5.60;90.10;;;;;;4889043;29;20064;-71
2021/03/12 06:41:48;;;;;;;5.63;0.73;;;5.60;90.10;;;;;;4882182;29;20137;-71
2021/03/12 06:44:36;;;;;;;7.63;1.20;;;5.60;90.10;;;;;;4896999;29;20052;-71
2021/03/12 06:47:12;;;;;;;5.63;1.03;;;5.60;90.10;;;;;;4894951;29;20135;-71
2021/03/12 06:50:00;;;;;;;4.67;1.13;;;5.60;90.20;;;;;;4896072;29;20056;-71
2021/03/12 06:52:38;;;;;;;2.73;0.80;;;5.70;90.20;;;;;;4885272;29;20430;-71
2021/03/12 06:55:19;;;;;;;5.80;1.00;;;5.70;90.20;;;;;;4883543;29;20568;-71
2021/03/12 06:58:09;;;;;;;6.13;1.50;;;5.70;90.20;;;;;;4884634;29;20608;-71
2021/03/12 07:00:59;;;;;;;6.03;0.90;;;5.70;90.10;;;;;;4890712;29;20534;-71
2021/03/12 07:03:33;;;;;;;6.47;1.20;;;5.70;90.20;;;;;;4888275;29;20055;-74
2021/03/12 07:06:17;;;;;;;6.57;1.23;;;5.70;90.10;;;;;;4897525;29;20449;-71
2021/03/12 07:08:48;;;;;;;10.30;1.63;;;5.70;90.10;;;;;;4878331;29;20072;-71
2021/03/12 07:11:42;;;;;;;6.27;1.07;;;5.80;90.00;;;;;;4878686;29;20161;-71
2021/03/12 07:14:41;;;;;;;5.93;1.67;;;5.80;90.00;;;;;;4876618;29;20048;-71
2021/03/12 07:17:33;;;;;;;9.77;1.80;;;5.80;90.00;;;;;;4886588;29;20524;-71
2021/03/12 07:20:17;;;;;;;7.67;2.07;;;5.80;90.00;;;;;;4882727;29;20049;-72
2021/03/12 07:22:48;;;;;;;4.80;1.20;;;5.90;89.90;;;;;;4896081;29;20064;-72
2021/03/12 07:25:21;;;;;;;;;;;6.00;89.80;;;;;;4890974;29;20048;-71
2021/03/12 07:27:59;;;;;;;5.33;1.00;;;6.00;90.00;;;;;;4895749;29;20336;-71
2021/03/12 07:30:36;;;;;;;7.60;1.00;;;6.10;89.60;;;;;;4896240;29;20052;-74
2021/03/12 07:33:04;;;;;;;8.37;1.40;;;6.10;89.50;;;;;;4896678;29;20413;-74
2021/03/12 07:35:38;;;;;;;7.13;1.50;;;6.10;90.00;;;;;;4896686;29;20072;-75
2021/03/12 07:38:25;;;;;;;9.87;1.50;;;6.10;89.40;;;;;;4896629;29;20051;-75
2021/03/12 07:41:06;;;;;;;6.23;1.37;;;6.20;89.10;;;;;;4894118;29;20052;-75
2021/03/12 07:43:45;;;;;;;9.33;1.30;;;6.20;89.30;;;;;;4895672;29;20051;-77
2021/03/12 07:46:32;;;;;;;6.23;1.30;;;6.30;89.40;;;;;;4890430;29;20053;-70
2021/03/12 07:49:28;;;;;;;7.83;1.47;;;6.30;89.30;;;;;;4895102;29;20041;-71
2021/03/12 07:52:02;;;;;;;8.33;1.17;;;6.40;89.00;;;;;;4895408;29;20060;-71
2021/03/12 07:54:35;;;;;;;8.50;1.00;;;6.50;88.80;;;;;;4896005;29;20044;-75
2021/03/12 07:57:06;;;;;;;4.03;1.33;;;6.50;88.80;;;;;;4896601;29;20053;-75
2021/03/12 07:59:46;;;;;;;5.93;1.77;;;6.60;88.70;;;;;;4886547;29;20053;-74
2021/03/12 08:02:55;;;;;;;9.15;2.30;;;6.60;88.70;;;;;;4896100;29;20053;-74
2021/03/12 08:05:41;;;;;;;10.20;1.50;;;6.60;88.30;;;;;;4896923;29;20156;-75
2021/03/12 08:08:37;;;;;;;5.13;0.87;;;6.70;88.20;;;;;;4897202;29;20099;-74
2021/03/12 08:11:36;;;;;;;7.77;1.10;;;6.70;88.70;;;;;;4882341;29;20398;-72
2021/03/12 08:14:18;;;;;;;6.50;1.10;;;6.80;88.30;;;;;;4881425;29;20118;-71
2021/03/12 08:17:00;;;;;;;3.83;1.17;;;6.90;88.30;;;;;;4878195;29;20046;-72
2021/03/12 08:19:37;;;;;;;6.80;1.20;;;6.90;88.40;;;;;;4890459;29;20045;-72
2021/03/12 08:22:28;;;;;;;8.27;1.90;;;7.00;88.40;;;;;;4888014;29;20059;-72
2021/03/12 08:25:09;;;;;;;11.18;1.77;;;7.10;88.20;;;;;;4883072;29;20051;-74
2021/03/12 08:27:55;;;;;;;6.43;1.20;;;7.20;87.90;;;;;;4897635;29;20045;-72
2021/03/12 08:30:34;;;;;;;8.68;1.05;;;7.30;87.90;;;;;;4866579;29;20072;-72
2021/03/12 08:33:08;;;;;;;9.97;2.00;;;7.40;87.60;;;;;;4895279;29;20124;-72
2021/03/12 08:35:53;;;;;;;12.45;1.67;;;7.40;87.40;;;;;;4895695;29;20060;-72
2021/03/12 08:38:40;;;;;;;8.00;1.40;;;7.40;87.10;;;;;;4896595;29;20112;-72
2021/03/12 08:41:40;;;;;;;9.73;1.25;;;7.50;87.20;;;;;;4892765;29;20053;-72
2021/03/12 08:44:32;;;;;;;9.02;1.30;;;7.50;87.00;;;;;;4894215;29;20516;-73
2021/03/12 08:47:18;;;;;;;6.95;1.45;;;7.60;87.00;;;;;;4882746;29;20132;-75
2021/03/12 08:49:51;;;;;;;13.18;1.98;;;7.70;87.10;;;;;;4895853;29;20497;-74
2021/03/12 08:52:24;;;;;;;12.07;1.52;;;7.80;86.40;;;;;;4896367;29;20064;-74
2021/03/12 08:55:00;;;;;;;11.53;1.37;;;7.90;86.40;;;;;;4879221;29;20052;-75
2021/03/12 08:57:32;;;;;;;11.77;1.40;;;8.10;86.30;;;;;;4893548;29;20042;-76
2021/03/12 09:00:09;;;;;;;6.57;1.27;;;8.20;85.50;;;;;;4897482;29;20099;-75
2021/03/12 09:03:20;;;;;;;13.13;1.60;;;8.30;85.60;;;;;;4899327;29;20049;-75
2021/03/12 09:06:11;;;;;;;10.98;2.50;;;8.60;85.20;;;;;;4901430;29;20055;-76
2021/03/12 09:08:58;;;;;;;13.25;2.10;;;8.70;83.70;;;;;;4899870;29;20060;-77
2021/03/12 09:11:56;;;;;;;10.50;1.63;;;8.80;84.40;;;;;;4886665;29;20053;-75
2021/03/12 09:14:39;;;;;;;10.10;1.92;;;8.90;83.90;;;;;;4898593;29;20059;-74
2021/03/12 09:17:07;;;;;;;8.32;1.20;;;9.00;83.90;;;;;;4898551;29;20056;-75
2021/03/12 09:19:36;;;;;;;17.17;2.70;;;9.10;84.10;;;;;;4882715;29;20079;-75
2021/03/12 09:22:10;;;;;;;8.60;1.80;;;9.30;83.10;;;;;;4898850;29;20072;-75
2021/03/12 09:24:54;;;;;;;9.48;1.63;;;9.40;83.20;;;;;;4896581;29;20516;-75
2021/03/12 09:28:02;;;;;;;10.90;2.15;;;9.60;82.60;;;;;;4896245;29;20044;-75
2021/03/12 09:30:33;;;;;;;11.05;2.67;;;9.60;82.50;;;;;;4893119;29;20105;-75
2021/03/12 09:33:34;;;;;;;13.70;2.03;;;9.50;81.20;;;;;;4896786;29;20112;-76
2021/03/12 09:36:23;;;;;;;8.88;2.40;;;9.40;81.40;;;;;;4900209;29;20041;-75
2021/03/12 09:38:53;;;;;;;14.25;2.35;;;9.30;81.20;;;;;;4899176;29;20052;-75
2021/03/12 09:41:25;;;;;;;10.18;2.78;;;9.20;81.70;;;;;;4898777;29;20053;-75
2021/03/12 09:44:14;;;;;;;15.05;2.67;;;9.10;81.80;;;;;;4900100;29;20113;-75
2021/03/12 09:46:57;;;;;;;12.88;3.22;;;9.10;81.80;;;;;;4899042;29;20493;-75
2021/03/12 09:49:42;;;;;;;12.40;2.10;;;9.10;82.00;;;;;;4892570;29;20444;-75
2021/03/12 09:52:17;;;;;;;10.18;2.28;;;9.10;81.90;;;;;;4905077;29;20052;-75
2021/03/12 09:54:51;;;;;;;14.50;1.60;;;9.10;82.10;;;;;;4898288;29;20063;-75
2021/03/12 09:57:22;;;;;;;9.03;1.50;;;9.00;81.80;;;;;;4897141;29;20131;-75
2021/03/12 09:59:54;;;;;;;6.95;1.50;;;9.00;82.20;;;;;;4897656;29;20055;-76
2021/03/12 10:02:57;;;;;;;14.50;2.80;;;9.00;82.50;;;;;;4883298;29;20054;-77
2021/03/12 10:05:46;;;;;;;9.98;1.67;;;9.10;81.90;;;;;;4919300;29;20052;-75
2021/03/12 10:09:09;;;;;;;8.98;2.08;;;9.00;81.70;;;;;;4898138;29;20048;-75
2021/03/12 10:11:54;;;;;;;7.72;1.60;;;9.00;82.20;;;;;;4888920;29;20517;-75
2021/03/12 10:14:36;;;;;;;10.23;1.70;;;9.00;82.20;;;;;;4897877;29;20043;-75
2021/03/12 10:17:17;;;;;;;9.10;1.77;;;9.00;82.40;;;;;;4883341;29;20080;-75
2021/03/12 10:19:45;;;;;;;7.93;1.30;;;9.00;82.40;;;;;;4893583;29;20124;-75
2021/03/12 10:22:18;;;;;;;7.43;1.83;;;9.10;82.20;;;;;;4899339;29;20061;-75
2021/03/12 10:24:54;;;;;;;;;;;9.00;82.00;;;;;;4899458;29;20124;-75
2021/03/12 10:27:23;;;;;;;10.52;1.70;;;9.00;82.20;;;;;;4890697;29;19962;-75
2021/03/12 10:29:51;;;;;;;9.30;1.90;;;9.00;82.20;;;;;;4899780;29;20085;-76
2021/03/12 10:32:20;;;;;;;11.77;2.30;;;9.00;82.20;;;;;;4899820;29;20489;-76
2021/03/12 10:34:55;;;;;;;6.05;1.30;;;8.90;82.20;;;;;;4890876;29;20493;-75
2021/03/12 10:37:32;;;;;;;9.48;1.60;;;8.80;82.70;;;;;;4864564;29;20132;-76
2021/03/12 10:39:59;;;;;;;14.02;1.73;;;8.70;82.90;;;;;;4895919;29;20049;-76
2021/03/12 10:42:29;;;;;;;12.02;1.67;;;8.60;83.20;;;;;;4897796;29;20501;-76
2021/03/12 10:45:01;;;;;;;9.48;1.45;;;8.40;83.70;;;;;;4898840;29;20113;-76
2021/03/12 10:47:28;;;;;;;11.13;1.92;;;8.20;84.40;;;;;;4898879;29;20123;-76
2021/03/12 10:49:55;;;;;;;10.52;1.50;;;8.10;85.10;;;;;;4897957;29;20060;-77
2021/03/12 10:52:27;;;;;;;8.50;1.17;;;7.90;85.60;;;;;;4893281;29;20163;-76
2021/03/12 10:54:55;;;;;;;8.45;2.00;;;7.90;86.10;;;;;;4897686;29;20052;-76
2021/03/12 10:57:38;;;;;;;10.55;2.22;;;7.90;86.60;;;;;;4898847;29;20556;-76
2021/03/12 11:00:14;;;;;;;9.93;1.80;;;7.90;86.70;;;;;;4887135;29;20053;-76
2021/03/12 11:02:42;;;;;;;8.75;1.80;;;7.80;86.60;;;;;;4896651;29;20068;-76
2021/03/12 11:05:12;;;;;;;9.85;2.10;;;7.80;86.90;;;;;;4882608;29;20390;-76
2021/03/12 11:07:41;;;;;;;8.48;1.75;;;7.80;87.20;;;;;;4897790;29;20048;-77
2021/03/12 11:10:09;;;;;;;10.32;1.80;;;7.70;87.50;;;;;;4898209;29;20046;-78
2021/03/12 11:12:41;;;;;;;9.00;2.55;;;7.70;87.80;;;;;;4898089;29;20033;-77
2021/03/12 11:15:09;;;;;;;9.55;1.95;;;7.60;88.00;;;;;;4898165;29;20048;-77
2021/03/12 11:17:37;;;;;;;8.13;1.50;;;7.60;88.20;;;;;;4897452;29;20092;-76
2021/03/12 11:20:21;;;;;;;10.82;1.80;;;7.50;88.50;;;;;;4897449;29;20063;-76
2021/03/12 11:22:49;;;;;;;5.45;1.13;;;7.50;88.90;;;;;;4897321;29;20053;-76
2021/03/12 11:25:16;;;;;;;7.90;1.52;;;7.40;89.10;;;;;;4897593;29;20119;-75
2021/03/12 11:27:44;;;;;;;9.90;2.53;;;7.40;89.40;;;;;;4881934;29;20104;-75
2021/03/12 11:30:19;;;;;;;6.78;0.93;;;7.40;90.00;;;;;;4898382;29;20051;-84
2021/03/12 11:32:46;;;;;;;10.82;2.00;;;7.50;89.70;;;;;;4897415;29;20386;-75
2021/03/12 11:35:15;;;;;;;6.03;1.27;;;7.60;90.10;;;;;;4898069;29;20477;-75
2021/03/12 11:37:43;;;;;;;11.35;2.25;;;7.60;89.60;;;;;;4881661;29;20599;-75
2021/03/12 11:40:12;;;;;;;8.63;1.85;;;7.60;89.70;;;;;;4897918;29;20072;-74
2021/03/12 11:42:41;;;;;;;7.03;1.40;;;7.70;89.80;;;;;;4897164;29;20048;-74
2021/03/12 11:45:10;;;;;;;9.97;1.87;;;7.90;89.60;;;;;;4897822;29;20044;-74
2021/03/12 11:47:38;;;;;;;10.07;2.15;;;8.10;89.40;;;;;;4896847;29;20053;-75
2021/03/12 11:50:08;;;;;;;9.40;1.15;;;8.10;89.00;;;;;;4896732;29;20058;-74
2021/03/12 11:52:35;;;;;;;3.58;1.08;;;8.10;89.10;;;;;;4896528;29;20131;-74
2021/03/12 11:55:04;;;;;;;6.75;1.92;;;8.10;89.30;;;;;;4897811;29;20045;-74
2021/03/12 11:57:30;;;;;;;7.57;2.15;;;8.20;89.40;;;;;;4896675;29;20044;-75
2021/03/12 12:00:01;;;;;;;8.90;1.85;;;8.30;89.00;;;;;;4897696;29;20166;-75
2021/03/12 12:02:39;;;;;;;8.30;1.83;;;8.30;88.90;;;;;;4896388;29;20580;-74
2021/03/12 12:05:09;;;;;;;4.80;1.73;;;8.30;88.80;;;;;;4898158;29;20045;-75
2021/03/12 12:07:36;;;;;;;6.43;1.48;;;8.40;88.50;;;;;;4892029;29;20529;-75
2021/03/12 12:10:08;;;;;;;10.18;1.75;;;8.40;88.20;;;;;;4893689;29;20512;-74
2021/03/12 12:12:35;;;;;;;8.48;1.92;;;8.50;87.90;;;;;;4889206;29;20128;-75
2021/03/12 12:15:04;;;;;;;8.75;1.80;;;8.70;87.40;;;;;;4885644;29;20045;-74
2021/03/12 12:17:31;;;;;;;8.95;1.83;;;8.80;86.80;;;;;;4859988;29;20076;-73
2021/03/12 12:19:57;;;;;;;9.88;1.67;;;9.00;86.00;;;;;;4892729;29;20049;-75
2021/03/12 12:22:24;;;;;;;9.18;1.98;;;9.20;85.90;;;;;;4908627;29;20052;-76
2021/03/12 12:24:55;;;;;;;8.52;1.58;;;9.40;86.10;;;;;;4892751;29;20048;-73
2021/03/12 12:27:23;;;;;;;8.30;1.38;;;9.50;85.50;;;;;;4892646;29;20037;-74
2021/03/12 12:29:50;;;;;;;7.95;1.80;;;9.60;85.00;;;;;;4894444;29;20080;-73
2021/03/12 12:32:17;;;;;;;6.97;1.73;;;9.50;84.40;;;;;;4877500;29;20413;-74
2021/03/12 12:34:44;;;;;;;5.18;1.52;;;9.50;84.40;;;;;;4891513;29;20140;-72
2021/03/12 12:37:10;;;;;;;9.35;2.55;;;9.40;83.50;;;;;;4891235;29;20075;-72
2021/03/12 12:39:37;;;;;;;8.38;1.27;;;9.40;84.00;;;;;;4892296;29;20761;-72
2021/03/12 12:42:04;;;;;;;5.47;1.30;;;9.30;83.60;;;;;;4884745;29;20104;-72
2021/03/12 12:44:30;;;;;;;8.15;1.45;;;9.30;82.80;;;;;;4892097;29;20564;-72
2021/03/12 12:46:57;;;;;;;9.77;1.75;;;9.30;82.50;;;;;;4893143;29;20721;-72
2021/03/12 12:49:23;;;;;;;12.15;1.92;;;9.30;82.50;;;;;;4875977;29;20108;-72
2021/03/12 12:51:50;;;;;;;9.85;1.10;;;9.30;82.30;;;;;;4892169;29;20059;-72
2021/03/12 12:54:17;;;;;;;10.45;1.90;;;9.20;82.30;;;;;;4892287;29;20044;-72
2021/03/12 12:56:45;;;;;;;8.35;1.00;;;9.20;82.90;;;;;;4895209;29;20113;-73
2021/03/12 12:59:12;;;;;;;7.65;1.48;;;9.10;83.20;;;;;;4879567;29;20055;-72
2021/03/12 13:01:39;;;;;;;5.63;1.25;;;9.00;83.90;;;;;;4896546;29;20123;-72
2021/03/12 13:04:10;;;;;;;11.10;1.55;;;8.90;84.40;;;;;;4865164;29;20044;-72
2021/03/12 13:06:38;;;;;;;9.63;1.45;;;8.80;84.80;;;;;;4895100;29;20060;-72
2021/03/12 13:09:05;;;;;;;4.82;0.90;;;8.80;85.10;;;;;;4887640;29;20123;-71
2021/03/12 13:11:34;;;;;;;7.22;1.08;;;8.80;85.30;;;;;;4892518;29;20049;-71
2021/03/12 13:14:02;;;;;;;6.57;1.00;;;8.80;85.70;;;;;;4889405;29;20048;-72
2021/03/12 13:16:29;;;;;;;6.22;1.35;;;8.90;85.60;;;;;;4875548;29;20049;-72
2021/03/12 13:18:57;;;;;;;5.32;0.90;;;8.90;85.10;;;;;;4891449;29;20466;-72
2021/03/12 13:21:39;;;;;;;5.25;1.30;;;8.90;84.80;;;;;;4892390;29;20454;-73
2021/03/12 13:24:05;;;;;;;5.65;1.00;;;9.00;84.90;;;;;;4893472;29;20049;-73
2021/03/12 13:26:32;;;;;;;4.72;0.70;;;9.00;84.70;;;;;;4892558;29;20096;-72
2021/03/12 13:28:59;;;;;;;4.18;1.50;;;9.00;84.90;;;;;;4891746;29;20056;-71